createdAt,value
2022-11-24T00:02:05.876Z,5.69
2022-11-24T00:07:33.152Z,7.84
2022-11-24T00:12:59.509Z,5.90
2022-11-24T00:18:24.503Z,7.81
2022-11-24T00:23:50.720Z,4.92
2022-11-24T00:29:16.125Z,8.54
2022-11-24T00:35:40.171Z,6.18
2022-11-24T00:41:04.433Z,3.96
2022-11-24T00:46:30.343Z,5.97
2022-11-24T00:51:57.179Z,7.97
2022-11-24T00:57:23.600Z,7.93
2022-11-24T01:02:50.431Z,6.80
2022-11-24T01:08:15.508Z,5.57
2022-11-24T01:13:42.511Z,3.89
2022-11-24T01:19:09.735Z,5.22
2022-11-24T01:24:35.895Z,6.50
2022-11-24T01:30:56.846Z,6.96
2022-11-24T01:36:18.627Z,4.60
2022-11-24T01:41:42.636Z,6.41
2022-11-24T01:47:06.612Z,7.02
2022-11-24T01:52:35.971Z,5.23
2022-11-24T01:58:03.436Z,4.09
2022-11-24T02:03:28.202Z,3.82
2022-11-24T02:08:53.850Z,6.78
2022-11-24T02:14:17.129Z,5.09
2022-11-24T02:19:43.914Z,6.33
2022-11-24T02:25:12.442Z,3.88
2022-11-24T02:30:40.216Z,5.86
2022-11-24T02:36:07.068Z,5.40
2022-11-24T02:41:32.949Z,6.58
2022-11-24T02:46:58.285Z,6.41
2022-11-24T02:52:25.473Z,8.50
2022-11-24T02:57:49.349Z,5.73
2022-11-24T03:03:14.688Z,5.48
2022-11-24T03:08:40.512Z,4.94
2022-11-24T03:14:08.003Z,5.00
2022-11-24T03:19:32.423Z,3.25
2022-11-24T03:24:55.920Z,7.53
2022-11-24T03:30:22.377Z,5.83
2022-11-24T03:35:46.044Z,7.89
2022-11-24T03:41:12.408Z,4.17
2022-11-24T03:46:40.217Z,3.79
2022-11-24T03:52:08.018Z,5.07
2022-11-24T03:57:34.665Z,6.15
2022-11-24T04:02:59.491Z,4.73
2022-11-24T04:08:25.427Z,2.90
2022-11-24T04:13:51.237Z,2.93
2022-11-24T04:19:19.177Z,5.85
2022-11-24T04:24:46.065Z,5.85
2022-11-24T04:30:12.344Z,6.22
2022-11-24T04:35:39.756Z,5.08
2022-11-24T04:41:05.173Z,7.21
2022-11-24T04:46:31.948Z,3.49
2022-11-24T04:51:57.890Z,5.67
2022-11-24T04:57:23.871Z,4.57
2022-11-24T05:02:49.005Z,5.10
2022-11-24T05:08:12.359Z,8.46
2022-11-24T05:13:37.718Z,7.60
2022-11-24T05:19:02.373Z,9.17
2022-11-24T05:24:29.564Z,8.43
2022-11-24T05:29:53.686Z,9.15
2022-11-24T05:35:18.012Z,5.66
2022-11-24T05:40:42.752Z,5.85
2022-11-24T05:46:07.897Z,5.90
2022-11-24T05:51:31.677Z,6.08
2022-11-24T05:56:56.455Z,10.40
2022-11-24T06:02:19.424Z,4.70
2022-11-24T06:07:45.121Z,10.24
2022-11-24T06:13:18.652Z,6.89
2022-11-24T06:18:44.949Z,9.51
2022-11-24T06:24:22.270Z,8.65
2022-11-24T06:29:47.557Z,5.39
2022-11-24T06:35:14.473Z,10.13
2022-11-24T06:40:40.548Z,8.79
2022-11-24T06:46:07.262Z,8.63
2022-11-24T06:51:33.520Z,4.77
2022-11-24T06:56:59.321Z,7.84
2022-11-24T07:02:24.381Z,8.05
2022-11-24T07:07:52.549Z,8.20
2022-11-24T07:13:18.581Z,4.48
2022-11-24T07:18:43.204Z,9.30
2022-11-24T07:24:09.518Z,10.54
2022-11-24T07:29:33.961Z,7.71
2022-11-24T07:35:00.115Z,10.94
2022-11-24T07:40:28.869Z,7.68
2022-11-24T07:45:50.317Z,9.04
2022-11-24T07:51:15.771Z,11.29
2022-11-24T07:56:37.159Z,5.84
2022-11-24T08:02:01.736Z,10.77
2022-11-24T08:07:27.612Z,11.96
2022-11-24T08:12:54.168Z,6.13
2022-11-24T08:18:23.280Z,5.93
2022-11-24T08:23:51.476Z,5.35
2022-11-24T08:29:13.534Z,8.32
2022-11-24T08:34:34.915Z,7.16
2022-11-24T08:40:01.285Z,10.84
2022-11-24T08:45:30.437Z,5.84
2022-11-24T08:50:53.842Z,7.04
2022-11-24T08:56:17.065Z,10.18
2022-11-24T09:01:39.171Z,7.39
2022-11-24T09:07:04.134Z,8.58
2022-11-24T09:12:32.017Z,8.45
2022-11-24T09:17:59.552Z,7.09
2022-11-24T09:23:24.309Z,9.15
2022-11-24T09:28:49.952Z,5.42
2022-11-24T09:34:14.210Z,8.00
2022-11-24T09:39:40.090Z,6.97
2022-11-24T09:45:01.464Z,7.61
2022-11-24T09:50:38.930Z,6.92
2022-11-24T09:56:02.012Z,3.61
2022-11-24T10:01:30.458Z,6.16
2022-11-24T10:06:58.098Z,3.53
2022-11-24T10:12:24.665Z,7.30
2022-11-24T10:17:56.094Z,3.19
2022-11-24T10:23:27.709Z,6.89
2022-11-24T10:28:57.760Z,3.97
2022-11-24T10:34:27.493Z,5.23
2022-11-24T10:39:59.727Z,5.20
2022-11-24T10:45:19.288Z,4.41
2022-11-24T10:50:43.419Z,3.26
2022-11-24T10:56:08.445Z,5.19
2022-11-24T11:01:35.943Z,4.85
2022-11-24T11:07:01.979Z,5.01
2022-11-24T11:12:44.634Z,2.96
2022-11-24T11:17:59.551Z,3.72
2022-11-24T11:23:22.977Z,5.96
2022-11-24T11:28:49.101Z,5.65
2022-11-24T11:34:25.040Z,4.20
2022-11-24T11:39:48.501Z,1.36
2022-11-24T11:45:10.010Z,2.00
2022-11-24T11:51:06.674Z,5.48
2022-11-24T11:56:06.023Z,2.96
2022-11-24T12:01:33.016Z,3.57
2022-11-24T12:07:15.225Z,4.44
2022-11-24T12:12:46.652Z,4.85
2022-11-24T12:18:33.038Z,3.70
2022-11-24T12:23:44.259Z,2.42
2022-11-24T12:29:08.267Z,6.10
2022-11-24T12:35:30.451Z,4.08
2022-11-24T12:41:06.505Z,5.93
2022-11-24T12:46:36.899Z,6.03
2022-11-24T12:52:04.625Z,5.04
2022-11-24T12:57:32.732Z,4.63
2022-11-24T13:03:00.761Z,3.03
2022-11-24T13:08:33.655Z,5.74
2022-11-24T13:14:03.661Z,1.84
2022-11-24T13:19:43.518Z,4.03
2022-11-24T13:25:10.788Z,4.55
2022-11-24T13:30:38.050Z,2.80
2022-11-24T13:36:26.248Z,2.57
2022-11-24T13:42:10.482Z,5.33
2022-11-24T13:47:39.677Z,3.45
2022-11-24T13:53:06.567Z,2.99
2022-11-24T13:58:30.556Z,2.42
2022-11-24T14:04:27.976Z,5.27
2022-11-24T14:09:26.644Z,5.65
2022-11-24T14:14:49.603Z,4.51
2022-11-24T14:20:12.988Z,3.69
2022-11-24T14:25:39.479Z,2.71
2022-11-24T14:31:04.237Z,7.49
2022-11-24T14:36:29.790Z,3.81
2022-11-24T14:41:56.261Z,5.18
2022-11-24T14:47:18.996Z,5.40
2022-11-24T14:52:45.748Z,3.94
2022-11-24T14:58:13.966Z,3.80
2022-11-24T15:03:44.174Z,4.11
2022-11-24T15:09:27.430Z,18.52
2022-11-24T15:14:52.335Z,4.91
2022-11-24T15:20:21.371Z,6.46
2022-11-24T15:25:47.406Z,4.70
2022-11-24T15:31:14.499Z,6.23
2022-11-24T15:36:40.487Z,4.14
2022-11-24T15:42:04.565Z,3.53
2022-11-24T15:47:32.273Z,4.36
2022-11-24T15:52:59.350Z,4.18
2022-11-24T15:58:26.244Z,4.03
2022-11-24T16:03:51.587Z,7.84
2022-11-24T16:09:16.453Z,11.45
2022-11-24T16:14:40.991Z,11.74
2022-11-24T16:20:04.513Z,8.32
2022-11-24T16:25:32.511Z,7.89
2022-11-24T16:30:59.459Z,11.73
2022-11-24T16:36:27.248Z,5.75
2022-11-24T16:41:55.023Z,9.36
2022-11-24T16:47:22.019Z,14.04
2022-11-24T17:07:03.934Z,7.13
2022-11-24T17:12:25.055Z,8.39
2022-11-24T17:18:22.452Z,11.20
2022-11-24T17:23:15.481Z,7.13
2022-11-24T17:28:41.638Z,4.87
2022-11-24T17:34:08.712Z,6.11
2022-11-24T17:39:35.522Z,9.56
2022-11-24T17:45:01.185Z,10.30
2022-11-24T17:50:27.192Z,7.23
2022-11-24T17:55:53.937Z,7.29
2022-11-24T18:01:16.387Z,9.50
2022-11-24T18:06:43.694Z,11.75
2022-11-24T18:12:10.964Z,7.47
2022-11-24T18:17:36.897Z,9.37
2022-11-24T18:23:06.084Z,14.40
2022-11-24T18:28:23.228Z,10.59
2022-11-24T18:33:51.421Z,9.68
2022-11-24T18:39:17.622Z,7.97
2022-11-24T18:44:45.412Z,12.74
2022-11-24T18:50:10.043Z,12.93
2022-11-24T18:55:33.751Z,14.28
2022-11-24T19:00:55.798Z,19.58
2022-11-24T19:06:24.868Z,20.57
2022-11-24T19:11:46.083Z,22.96
2022-11-24T19:17:07.753Z,17.76
2022-11-24T19:22:32.188Z,15.31
2022-11-24T19:27:55.267Z,18.97
2022-11-24T19:33:19.798Z,12.81
2022-11-24T19:38:46.268Z,13.17
2022-11-24T19:44:08.332Z,11.77
2022-11-24T19:49:35.786Z,10.85
2022-11-24T19:55:01.730Z,14.63
2022-11-24T20:00:32.099Z,10.99
2022-11-24T20:05:55.951Z,9.39
2022-11-24T20:11:21.284Z,11.01
2022-11-24T20:16:42.490Z,10.67
2022-11-24T20:22:07.362Z,8.43
2022-11-24T20:27:31.688Z,7.83
2022-11-24T20:32:55.983Z,8.11
2022-11-24T20:38:20.084Z,5.78
2022-11-24T20:43:46.914Z,10.15
2022-11-24T20:49:13.732Z,10.79
2022-11-24T20:54:40.862Z,12.32
2022-11-24T21:00:02.522Z,10.97
2022-11-24T21:05:28.749Z,6.89
2022-11-24T21:10:54.795Z,10.01
2022-11-24T21:16:19.800Z,12.25
2022-11-24T21:21:45.764Z,10.80
2022-11-24T21:27:09.347Z,9.52
2022-11-24T21:32:38.017Z,9.93
2022-11-24T21:38:04.198Z,15.95
2022-11-24T21:43:32.872Z,12.91
2022-11-24T21:48:58.090Z,10.36
2022-11-24T21:54:25.010Z,14.56
2022-11-24T21:59:53.103Z,8.08
2022-11-24T22:05:19.432Z,10.81
2022-11-24T22:10:40.730Z,9.66
2022-11-24T22:16:07.378Z,10.19
2022-11-24T22:21:32.299Z,7.19
2022-11-24T22:27:00.301Z,8.54
2022-11-24T22:32:26.596Z,9.03
2022-11-24T22:37:53.945Z,5.31
2022-11-24T22:43:23.124Z,7.54
2022-11-24T22:48:45.361Z,6.32
2022-11-24T22:54:12.227Z,9.00
2022-11-24T22:59:38.087Z,8.26
2022-11-24T23:05:05.649Z,7.00
2022-11-24T23:10:31.819Z,7.90
2022-11-24T23:15:56.539Z,5.95
2022-11-24T23:21:18.880Z,4.41
2022-11-24T23:26:41.897Z,7.58
2022-11-24T23:32:07.885Z,5.46
2022-11-24T23:37:52.366Z,8.64
2022-11-24T23:42:59.612Z,10.13
2022-11-24T23:48:27.216Z,5.20
2022-11-24T23:53:54.440Z,6.09
2022-11-24T23:59:17.367Z,8.47
